sensor_id;sensor_type;location;lat;lon;timestamp;P1;durP1;ratioP1;P2;durP2;ratioP2
10440;SDS011;5268;49.346;9.522;2023-03-23T04:07:58;1.40;;;1.30;;
10440;SDS011;5268;49.346;9.522;2023-03-23T04:13:01;2.00;;;1.40;;
10440;SDS011;5268;49.346;9.522;2023-03-23T04:18:04;2.97;;;1.30;;
10440;SDS011;5268;49.346;9.522;2023-03-23T04:23:08;2.05;;;1.30;;
10440;SDS011;5268;49.346;9.522;2023-03-23T04:28:09;1.40;;;1.20;;
10440;SDS011;5268;49.346;9.522;2023-03-23T04:33:12;2.28;;;1.27;;
10440;SDS011;5268;49.346;9.522;2023-03-23T04:38:16;1.92;;;1.48;;
10440;SDS011;5268;49.346;9.522;2023-03-23T04:43:20;2.10;;;1.42;;
10440;SDS011;5268;49.346;9.522;2023-03-23T04:48:24;2.50;;;1.73;;
10440;SDS011;5268;49.346;9.522;2023-03-23T04:53:28;2.05;;;1.45;;
10440;SDS011;5268;49.346;9.522;2023-03-23T04:58:30;3.13;;;1.30;;
10440;SDS011;5268;49.346;9.522;2023-03-23T05:03:33;2.90;;;1.90;;
10440;SDS011;5268;49.346;9.522;2023-03-23T05:08:37;3.40;;;2.45;;
10440;SDS011;5268;49.346;9.522;2023-03-23T05:13:39;3.25;;;1.80;;
10440;SDS011;5268;49.346;9.522;2023-03-23T05:18:44;1.70;;;1.33;;
10440;SDS011;5268;49.346;9.522;2023-03-23T05:23:48;2.85;;;1.40;;
10440;SDS011;5268;49.346;9.522;2023-03-23T05:28:54;13.75;;;10.90;;
10440;SDS011;5268;49.346;9.522;2023-03-23T05:33:57;3.53;;;1.80;;
10440;SDS011;5268;49.346;9.522;2023-03-23T05:39:00;2.38;;;1.55;;
10440;SDS011;5268;49.346;9.522;2023-03-23T05:44:03;1.98;;;1.70;;
10440;SDS011;5268;49.346;9.522;2023-03-23T05:49:06;2.20;;;1.50;;
10440;SDS011;5268;49.346;9.522;2023-03-23T05:54:10;1.70;;;1.52;;
10440;SDS011;5268;49.346;9.522;2023-03-23T05:59:12;2.08;;;1.88;;
10440;SDS011;5268;49.346;9.522;2023-03-23T06:04:14;3.20;;;1.70;;
10440;SDS011;5268;49.346;9.522;2023-03-23T06:09:18;2.00;;;1.50;;
10440;SDS011;5268;49.346;9.522;2023-03-23T06:14:21;2.13;;;1.65;;
10440;SDS011;5268;49.346;9.522;2023-03-23T06:19:23;1.83;;;1.20;;
10440;SDS011;5268;49.346;9.522;2023-03-23T06:24:28;2.53;;;1.30;;
10440;SDS011;5268;49.346;9.522;2023-03-23T06:29:30;1.65;;;1.40;;
10440;SDS011;5268;49.346;9.522;2023-03-23T06:34:32;2.92;;;1.50;;
10440;SDS011;5268;49.346;9.522;2023-03-23T06:39:36;2.25;;;1.77;;
10440;SDS011;5268;49.346;9.522;2023-03-23T06:44:39;17.88;;;13.02;;
10440;SDS011;5268;49.346;9.522;2023-03-23T06:49:42;2.60;;;2.00;;
10440;SDS011;5268;49.346;9.522;2023-03-23T06:54:45;4.18;;;3.47;;
10440;SDS011;5268;49.346;9.522;2023-03-23T06:59:47;9.30;;;6.60;;
10440;SDS011;5268;49.346;9.522;2023-03-23T07:04:49;13.65;;;11.90;;
10440;SDS011;5268;49.346;9.522;2023-03-23T07:09:55;4.07;;;3.35;;
10440;SDS011;5268;49.346;9.522;2023-03-23T07:14:58;3.60;;;3.30;;
10440;SDS011;5268;49.346;9.522;2023-03-23T07:20:00;2.45;;;1.70;;
10440;SDS011;5268;49.346;9.522;2023-03-23T07:25:04;1.58;;;1.40;;
10440;SDS011;5268;49.346;9.522;2023-03-23T07:30:07;1.80;;;1.60;;
10440;SDS011;5268;49.346;9.522;2023-03-23T07:35:09;3.95;;;3.55;;
10440;SDS011;5268;49.346;9.522;2023-03-23T07:40:13;4.20;;;3.13;;
10440;SDS011;5268;49.346;9.522;2023-03-23T07:45:15;4.32;;;3.90;;
10440;SDS011;5268;49.346;9.522;2023-03-23T07:50:18;3.90;;;3.20;;
10440;SDS011;5268;49.346;9.522;2023-03-23T07:55:24;2.55;;;1.50;;
10440;SDS011;5268;49.346;9.522;2023-03-23T08:00:27;2.35;;;1.50;;
10440;SDS011;5268;49.346;9.522;2023-03-23T08:05:29;2.03;;;1.58;;
10440;SDS011;5268;49.346;9.522;2023-03-23T08:10:33;2.60;;;1.50;;
10440;SDS011;5268;49.346;9.522;2023-03-23T08:15:36;2.80;;;1.60;;
10440;SDS011;5268;49.346;9.522;2023-03-23T08:20:39;1.50;;;1.40;;
10440;SDS011;5268;49.346;9.522;2023-03-23T08:25:43;2.50;;;1.40;;
10440;SDS011;5268;49.346;9.522;2023-03-23T08:30:45;2.85;;;1.65;;
10440;SDS011;5268;49.346;9.522;2023-03-23T08:35:53;2.90;;;1.50;;
10440;SDS011;5268;49.346;9.522;2023-03-23T08:40:58;3.72;;;1.58;;
10440;SDS011;5268;49.346;9.522;2023-03-23T08:46:02;3.53;;;1.67;;
10440;SDS011;5268;49.346;9.522;2023-03-23T08:51:09;2.70;;;1.48;;
10440;SDS011;5268;49.346;9.522;2023-03-23T08:56:13;2.92;;;1.65;;
10440;SDS011;5268;49.346;9.522;2023-03-23T09:01:15;2.30;;;1.45;;
10440;SDS011;5268;49.346;9.522;2023-03-23T09:06:17;4.20;;;1.60;;
10440;SDS011;5268;49.346;9.522;2023-03-23T09:11:21;1.73;;;1.45;;
10440;SDS011;5268;49.346;9.522;2023-03-23T09:16:23;2.63;;;1.50;;
10440;SDS011;5268;49.346;9.522;2023-03-23T09:21:26;2.95;;;1.52;;
10440;SDS011;5268;49.346;9.522;2023-03-23T09:26:31;2.78;;;1.52;;
10440;SDS011;5268;49.346;9.522;2023-03-23T09:31:33;2.22;;;1.70;;
10440;SDS011;5268;49.346;9.522;2023-03-23T09:36:36;2.75;;;1.60;;
10440;SDS011;5268;49.346;9.522;2023-03-23T09:47:08;2.45;;;1.88;;
10440;SDS011;5268;49.346;9.522;2023-03-23T09:52:16;2.85;;;1.70;;
10440;SDS011;5268;49.346;9.522;2023-03-23T09:57:22;2.17;;;1.67;;
10440;SDS011;5268;49.346;9.522;2023-03-23T10:02:29;2.55;;;1.63;;
10440;SDS011;5268;49.346;9.522;2023-03-23T10:07:35;2.53;;;1.83;;
10440;SDS011;5268;49.346;9.522;2023-03-23T10:12:41;2.38;;;1.65;;
10440;SDS011;5268;49.346;9.522;2023-03-23T10:17:49;3.85;;;1.98;;
10440;SDS011;5268;49.346;9.522;2023-03-23T10:22:57;2.65;;;1.65;;
10440;SDS011;5268;49.346;9.522;2023-03-23T10:28:06;2.38;;;1.70;;
10440;SDS011;5268;49.346;9.522;2023-03-23T10:33:14;2.65;;;1.70;;
10440;SDS011;5268;49.346;9.522;2023-03-23T10:38:21;2.65;;;1.80;;
10440;SDS011;5268;49.346;9.522;2023-03-23T10:43:27;3.42;;;1.80;;
10440;SDS011;5268;49.346;9.522;2023-03-23T10:48:30;1.70;;;1.60;;
10440;SDS011;5268;49.346;9.522;2023-03-23T10:53:35;3.25;;;1.85;;
10440;SDS011;5268;49.346;9.522;2023-03-23T10:58:41;2.47;;;1.98;;
10440;SDS011;5268;49.346;9.522;2023-03-23T11:03:43;2.58;;;1.83;;
10440;SDS011;5268;49.346;9.522;2023-03-23T11:08:50;2.95;;;2.05;;
10440;SDS011;5268;49.346;9.522;2023-03-23T11:13:59;2.10;;;1.90;;
10440;SDS011;5268;49.346;9.522;2023-03-23T11:19:11;4.05;;;2.55;;
10440;SDS011;5268;49.346;9.522;2023-03-23T11:24:14;4.57;;;2.50;;
10440;SDS011;5268;49.346;9.522;2023-03-23T11:29:18;4.00;;;2.00;;
10440;SDS011;5268;49.346;9.522;2023-03-23T11:34:24;2.13;;;1.50;;
10440;SDS011;5268;49.346;9.522;2023-03-23T11:39:32;2.33;;;1.70;;
10440;SDS011;5268;49.346;9.522;2023-03-23T11:44:41;3.17;;;2.00;;
10440;SDS011;5268;49.346;9.522;2023-03-23T11:49:47;2.05;;;1.70;;
10440;SDS011;5268;49.346;9.522;2023-03-23T11:54:55;2.88;;;1.80;;
10440;SDS011;5268;49.346;9.522;2023-03-23T12:00:12;2.90;;;1.52;;
10440;SDS011;5268;49.346;9.522;2023-03-23T12:05:28;5.80;;;1.50;;
10440;SDS011;5268;49.346;9.522;2023-03-23T12:10:38;1.80;;;1.40;;
10440;SDS011;5268;49.346;9.522;2023-03-23T12:15:49;2.35;;;1.80;;
10440;SDS011;5268;49.346;9.522;2023-03-23T12:21:05;3.13;;;1.85;;
10440;SDS011;5268;49.346;9.522;2023-03-23T12:26:15;3.97;;;1.88;;
10440;SDS011;5268;49.346;9.522;2023-03-23T12:31:25;1.90;;;1.50;;
10440;SDS011;5268;49.346;9.522;2023-03-23T12:36:36;2.55;;;1.48;;
10440;SDS011;5268;49.346;9.522;2023-03-23T12:41:49;2.47;;;1.40;;
10440;SDS011;5268;49.346;9.522;2023-03-23T12:47:13;2.90;;;1.88;;
10440;SDS011;5268;49.346;9.522;2023-03-23T12:52:26;4.78;;;2.50;;
10440;SDS011;5268;49.346;9.522;2023-03-23T12:57:34;1.70;;;1.60;;
10440;SDS011;5268;49.346;9.522;2023-03-23T13:02:43;2.65;;;1.70;;
10440;SDS011;5268;49.346;9.522;2023-03-23T13:07:52;3.20;;;2.40;;
10440;SDS011;5268;49.346;9.522;2023-03-23T13:12:57;7.43;;;4.93;;
10440;SDS011;5268;49.346;9.522;2023-03-23T13:18:04;5.45;;;3.70;;
10440;SDS011;5268;49.346;9.522;2023-03-23T13:23:13;4.80;;;2.38;;
10440;SDS011;5268;49.346;9.522;2023-03-23T13:28:17;2.05;;;1.80;;
10440;SDS011;5268;49.346;9.522;2023-03-23T13:33:23;2.95;;;2.28;;
10440;SDS011;5268;49.346;9.522;2023-03-23T13:38:27;5.68;;;3.25;;
10440;SDS011;5268;49.346;9.522;2023-03-23T13:43:31;3.33;;;1.30;;
10440;SDS011;5268;49.346;9.522;2023-03-23T13:48:43;3.88;;;2.47;;
10440;SDS011;5268;49.346;9.522;2023-03-23T13:53:47;5.47;;;3.40;;
10440;SDS011;5268;49.346;9.522;2023-03-23T13:58:52;5.88;;;3.83;;
10440;SDS011;5268;49.346;9.522;2023-03-23T14:04:10;6.68;;;3.45;;
10440;SDS011;5268;49.346;9.522;2023-03-23T14:09:15;1.83;;;1.60;;
10440;SDS011;5268;49.346;9.522;2023-03-23T14:14:22;1.80;;;1.67;;
10440;SDS011;5268;49.346;9.522;2023-03-23T14:19:29;1.95;;;1.75;;
10440;SDS011;5268;49.346;9.522;2023-03-23T14:24:32;1.83;;;1.30;;
10440;SDS011;5268;49.346;9.522;2023-03-23T14:29:40;1.30;;;1.17;;
10440;SDS011;5268;49.346;9.522;2023-03-23T14:34:43;1.95;;;1.23;;
10440;SDS011;5268;49.346;9.522;2023-03-23T14:39:49;1.50;;;1.08;;
10440;SDS011;5268;49.346;9.522;2023-03-23T14:44:53;2.22;;;1.35;;
10440;SDS011;5268;49.346;9.522;2023-03-23T14:49:57;2.58;;;1.40;;
10440;SDS011;5268;49.346;9.522;2023-03-23T14:55:10;2.40;;;1.65;;
10440;SDS011;5268;49.346;9.522;2023-03-23T15:00:13;1.90;;;1.70;;
10440;SDS011;5268;49.346;9.522;2023-03-23T15:05:19;4.05;;;2.10;;
10440;SDS011;5268;49.346;9.522;2023-03-23T15:10:27;2.20;;;2.00;;
10440;SDS011;5268;49.346;9.522;2023-03-23T15:15:30;2.33;;;1.65;;
10440;SDS011;5268;49.346;9.522;2023-03-23T15:20:46;4.43;;;3.65;;
10440;SDS011;5268;49.346;9.522;2023-03-23T15:25:50;5.43;;;3.67;;
10440;SDS011;5268;49.346;9.522;2023-03-23T15:30:54;2.80;;;2.47;;
10440;SDS011;5268;49.346;9.522;2023-03-23T15:35:59;3.30;;;2.55;;
10440;SDS011;5268;49.346;9.522;2023-03-23T15:41:22;3.95;;;2.55;;
10440;SDS011;5268;49.346;9.522;2023-03-23T15:46:25;5.43;;;3.42;;
10440;SDS011;5268;49.346;9.522;2023-03-23T15:51:30;6.65;;;4.43;;
10440;SDS011;5268;49.346;9.522;2023-03-23T15:56:33;17.25;;;10.70;;
10440;SDS011;5268;49.346;9.522;2023-03-23T16:01:36;19.42;;;10.95;;
10440;SDS011;5268;49.346;9.522;2023-03-23T16:06:41;7.80;;;4.25;;
10440;SDS011;5268;49.346;9.522;2023-03-23T16:11:44;5.70;;;2.40;;
10440;SDS011;5268;49.346;9.522;2023-03-23T16:16:47;4.90;;;2.90;;
10440;SDS011;5268;49.346;9.522;2023-03-23T16:21:53;3.20;;;2.40;;
10440;SDS011;5268;49.346;9.522;2023-03-23T16:26:55;2.58;;;2.10;;
10440;SDS011;5268;49.346;9.522;2023-03-23T16:31:57;4.97;;;3.85;;
10440;SDS011;5268;49.346;9.522;2023-03-23T16:37:01;5.25;;;2.63;;
10440;SDS011;5268;49.346;9.522;2023-03-23T16:42:03;2.72;;;2.50;;
10440;SDS011;5268;49.346;9.522;2023-03-23T16:47:05;3.50;;;2.30;;
10440;SDS011;5268;49.346;9.522;2023-03-23T16:52:08;3.78;;;2.40;;
10440;SDS011;5268;49.346;9.522;2023-03-23T16:57:11;2.67;;;2.40;;
10440;SDS011;5268;49.346;9.522;2023-03-23T17:02:13;2.75;;;2.35;;
10440;SDS011;5268;49.346;9.522;2023-03-23T17:07:16;3.10;;;2.22;;
10440;SDS011;5268;49.346;9.522;2023-03-23T17:12:19;2.70;;;2.50;;
10440;SDS011;5268;49.346;9.522;2023-03-23T17:17:21;2.95;;;2.50;;
10440;SDS011;5268;49.346;9.522;2023-03-23T17:22:25;4.85;;;2.88;;
10440;SDS011;5268;49.346;9.522;2023-03-23T17:27:27;4.38;;;3.20;;
10440;SDS011;5268;49.346;9.522;2023-03-23T17:32:30;3.92;;;3.08;;
10440;SDS011;5268;49.346;9.522;2023-03-23T17:37:33;4.80;;;3.97;;
10440;SDS011;5268;49.346;9.522;2023-03-23T17:42:37;4.55;;;3.38;;
10440;SDS011;5268;49.346;9.522;2023-03-23T17:47:39;3.90;;;3.22;;
10440;SDS011;5268;49.346;9.522;2023-03-23T17:52:42;4.70;;;3.30;;
10440;SDS011;5268;49.346;9.522;2023-03-23T17:57:44;4.82;;;3.80;;
10440;SDS011;5268;49.346;9.522;2023-03-23T18:02:46;4.88;;;3.92;;
10440;SDS011;5268;49.346;9.522;2023-03-23T18:07:49;4.15;;;3.50;;
10440;SDS011;5268;49.346;9.522;2023-03-23T18:12:51;4.55;;;2.95;;
10440;SDS011;5268;49.346;9.522;2023-03-23T18:17:53;3.00;;;2.55;;
10440;SDS011;5268;49.346;9.522;2023-03-23T18:22:57;3.25;;;2.42;;
10440;SDS011;5268;49.346;9.522;2023-03-23T18:28:00;3.70;;;2.80;;
10440;SDS011;5268;49.346;9.522;2023-03-23T18:33:02;4.88;;;2.95;;
10440;SDS011;5268;49.346;9.522;2023-03-23T18:38:05;4.30;;;2.83;;
10440;SDS011;5268;49.346;9.522;2023-03-23T18:43:07;4.72;;;3.67;;
10440;SDS011;5268;49.346;9.522;2023-03-23T18:48:10;3.83;;;3.53;;
10440;SDS011;5268;49.346;9.522;2023-03-23T18:53:13;5.18;;;3.05;;
10440;SDS011;5268;49.346;9.522;2023-03-23T18:58:16;3.92;;;3.08;;
10440;SDS011;5268;49.346;9.522;2023-03-23T19:03:18;19.75;;;13.88;;
10440;SDS011;5268;49.346;9.522;2023-03-23T19:08:22;16.00;;;11.02;;
10440;SDS011;5268;49.346;9.522;2023-03-23T19:13:24;12.75;;;8.98;;
10440;SDS011;5268;49.346;9.522;2023-03-23T19:18:26;9.45;;;6.47;;
10440;SDS011;5268;49.346;9.522;2023-03-23T19:23:30;11.98;;;7.90;;
10440;SDS011;5268;49.346;9.522;2023-03-23T19:28:32;8.73;;;7.78;;
10440;SDS011;5268;49.346;9.522;2023-03-23T19:33:34;23.02;;;20.63;;
10440;SDS011;5268;49.346;9.522;2023-03-23T19:38:38;14.73;;;13.13;;
10440;SDS011;5268;49.346;9.522;2023-03-23T19:43:40;17.75;;;15.85;;
10440;SDS011;5268;49.346;9.522;2023-03-23T19:48:43;78.85;;;50.30;;
10440;SDS011;5268;49.346;9.522;2023-03-23T19:53:47;48.33;;;34.05;;
10440;SDS011;5268;49.346;9.522;2023-03-23T19:58:49;13.13;;;11.38;;
10440;SDS011;5268;49.346;9.522;2023-03-23T20:03:52;19.42;;;14.82;;
10440;SDS011;5268;49.346;9.522;2023-03-23T20:08:56;13.73;;;10.60;;
10440;SDS011;5268;49.346;9.522;2023-03-23T20:13:58;12.60;;;9.93;;
10440;SDS011;5268;49.346;9.522;2023-03-23T20:19:00;11.70;;;6.65;;
10440;SDS011;5268;49.346;9.522;2023-03-23T20:24:04;11.82;;;9.55;;
10440;SDS011;5268;49.346;9.522;2023-03-23T20:29:06;13.10;;;9.70;;
10440;SDS011;5268;49.346;9.522;2023-03-23T20:34:09;9.93;;;8.88;;
10440;SDS011;5268;49.346;9.522;2023-03-23T20:39:15;9.68;;;8.25;;
10440;SDS011;5268;49.346;9.522;2023-03-23T20:44:20;12.68;;;9.82;;
10440;SDS011;5268;49.346;9.522;2023-03-23T20:49:24;11.73;;;9.35;;
10440;SDS011;5268;49.346;9.522;2023-03-23T20:54:28;10.43;;;8.20;;
10440;SDS011;5268;49.346;9.522;2023-03-23T20:59:30;9.68;;;8.43;;
10440;SDS011;5268;49.346;9.522;2023-03-23T21:04:32;9.50;;;7.57;;
10440;SDS011;5268;49.346;9.522;2023-03-23T21:09:37;9.05;;;6.60;;
10440;SDS011;5268;49.346;9.522;2023-03-23T21:14:40;7.90;;;6.97;;
10440;SDS011;5268;49.346;9.522;2023-03-23T21:19:43;5.50;;;4.20;;
10440;SDS011;5268;49.346;9.522;2023-03-23T21:24:47;6.03;;;4.00;;
10440;SDS011;5268;49.346;9.522;2023-03-23T21:29:54;4.47;;;3.30;;
10440;SDS011;5268;49.346;9.522;2023-03-23T21:34:58;4.10;;;3.00;;
10440;SDS011;5268;49.346;9.522;2023-03-23T21:40:05;4.85;;;2.90;;
10440;SDS011;5268;49.346;9.522;2023-03-23T21:45:13;3.03;;;2.72;;
10440;SDS011;5268;49.346;9.522;2023-03-23T21:50:17;4.25;;;2.55;;
10440;SDS011;5268;49.346;9.522;2023-03-23T21:55:22;3.53;;;2.90;;
10440;SDS011;5268;49.346;9.522;2023-03-23T22:00:24;3.80;;;2.80;;
10440;SDS011;5268;49.346;9.522;2023-03-23T22:05:27;2.85;;;2.55;;
10440;SDS011;5268;49.346;9.522;2023-03-23T22:10:31;3.75;;;2.63;;
10440;SDS011;5268;49.346;9.522;2023-03-23T22:15:33;4.25;;;2.60;;
10440;SDS011;5268;49.346;9.522;2023-03-23T22:20:35;3.28;;;2.22;;
10440;SDS011;5268;49.346;9.522;2023-03-23T22:25:40;2.38;;;2.15;;
10440;SDS011;5268;49.346;9.522;2023-03-23T22:30:42;3.22;;;2.40;;
10440;SDS011;5268;49.346;9.522;2023-03-23T22:35:44;3.17;;;2.20;;
10440;SDS011;5268;49.346;9.522;2023-03-23T22:40:54;2.83;;;2.30;;
10440;SDS011;5268;49.346;9.522;2023-03-23T22:45:56;3.53;;;2.30;;
10440;SDS011;5268;49.346;9.522;2023-03-23T22:50:59;3.40;;;2.20;;
